createdAt,value
2018-08-16T00:03:39.030Z,13.99
2018-08-16T00:08:43.769Z,13.86
2018-08-16T00:13:48.562Z,13.74
2018-08-16T00:18:53.999Z,13.69
2018-08-16T00:23:58.919Z,13.65
2018-08-16T00:29:03.605Z,13.62
2018-08-16T00:34:08.658Z,13.57
2018-08-16T00:39:13.367Z,13.60
2018-08-16T00:44:18.150Z,13.63
2018-08-16T00:49:23.137Z,13.59
2018-08-16T00:54:27.824Z,13.60
2018-08-16T00:59:32.523Z,13.48
2018-08-16T01:04:37.244Z,13.56
2018-08-16T01:09:41.983Z,13.45
2018-08-16T01:14:46.748Z,13.49
2018-08-16T01:19:51.521Z,13.55
2018-08-16T01:24:56.268Z,13.49
2018-08-16T01:30:01.011Z,13.42
2018-08-16T01:35:07.112Z,13.50
2018-08-16T01:40:11.754Z,13.61
2018-08-16T01:45:16.542Z,13.53
2018-08-16T01:50:21.243Z,13.56
2018-08-16T01:55:26.029Z,13.60
2018-08-16T02:00:30.754Z,13.61
2018-08-16T02:05:35.558Z,13.80
2018-08-16T02:10:40.295Z,13.74
2018-08-16T02:15:45.076Z,13.53
2018-08-16T02:20:49.761Z,13.37
2018-08-16T02:25:54.499Z,13.32
2018-08-16T02:30:59.223Z,13.07
2018-08-16T02:36:04.031Z,12.92
2018-08-16T02:41:08.712Z,12.87
2018-08-16T02:46:13.534Z,12.85
2018-08-16T02:51:18.150Z,13.09
2018-08-16T02:56:23.132Z,12.88
2018-08-16T03:01:27.960Z,12.99
2018-08-16T03:06:32.697Z,12.84
2018-08-16T03:11:37.432Z,12.84
2018-08-16T03:16:42.126Z,12.76
2018-08-16T03:21:46.824Z,12.69
2018-08-16T03:26:51.525Z,12.55
2018-08-16T03:31:56.207Z,12.37
2018-08-16T03:37:00.943Z,12.34
2018-08-16T03:42:05.995Z,12.34
2018-08-16T03:47:10.738Z,12.29
2018-08-16T03:52:15.446Z,12.24
2018-08-16T03:57:20.327Z,12.43
2018-08-16T04:02:25.043Z,12.49
2018-08-16T04:07:29.818Z,12.23
2018-08-16T04:12:34.439Z,12.26
2018-08-16T04:17:39.199Z,12.29
2018-08-16T04:22:43.944Z,12.20
2018-08-16T04:27:48.871Z,12.29
2018-08-16T04:32:53.630Z,12.38
2018-08-16T04:37:58.444Z,12.50
2018-08-16T04:43:03.057Z,13.06
2018-08-16T04:48:08.119Z,13.36
2018-08-16T04:53:12.840Z,13.61
2018-08-16T04:58:17.659Z,14.17
2018-08-16T05:03:22.343Z,14.63
2018-08-16T05:08:26.974Z,14.99
2018-08-16T05:13:31.655Z,15.63
2018-08-16T05:18:36.409Z,16.04
2018-08-16T05:23:41.089Z,16.84
2018-08-16T05:28:45.759Z,17.80
2018-08-16T05:33:50.595Z,17.65
2018-08-16T05:38:55.398Z,17.93
2018-08-16T05:44:00.051Z,17.93
2018-08-16T05:49:04.866Z,17.96
2018-08-16T05:54:09.580Z,17.78
2018-08-16T05:59:14.196Z,18.53
2018-08-16T06:04:19.068Z,19.15
2018-08-16T06:09:23.916Z,18.21
2018-08-16T06:14:28.808Z,18.44
2018-08-16T06:19:33.544Z,18.00
2018-08-16T06:24:38.266Z,18.55
2018-08-16T06:29:42.981Z,18.12
2018-08-16T06:34:47.701Z,18.94
2018-08-16T06:39:52.397Z,17.92
2018-08-16T06:44:57.037Z,18.25
2018-08-16T06:50:01.767Z,18.12
2018-08-16T06:55:08.219Z,19.10
2018-08-16T07:00:13.178Z,19.38
2018-08-16T07:05:18.026Z,19.68
2018-08-16T07:10:22.882Z,19.64
2018-08-16T07:15:27.867Z,20.40
2018-08-16T07:20:32.530Z,19.95
2018-08-16T07:25:37.310Z,20.76
2018-08-16T07:30:42.014Z,21.37
2018-08-16T07:35:47.822Z,21.48
2018-08-16T07:40:52.547Z,21.98
2018-08-16T07:51:01.253Z,21.80
2018-08-16T07:56:05.994Z,22.24
2018-08-16T08:01:10.844Z,22.78
2018-08-16T08:06:15.581Z,23.02
2018-08-16T08:11:20.366Z,22.52
2018-08-16T08:16:25.102Z,23.07
2018-08-16T08:21:29.905Z,23.81
2018-08-16T08:26:34.679Z,23.72
2018-08-16T08:31:39.477Z,23.60
2018-08-16T08:37:00.971Z,23.67
2018-08-16T08:42:05.694Z,23.70
2018-08-16T08:47:10.423Z,23.74
2018-08-16T08:52:15.118Z,24.49
2018-08-16T08:57:37.604Z,24.49
2018-08-16T09:02:42.317Z,25.07
2018-08-16T09:07:46.980Z,25.05
2018-08-16T09:14:09.329Z,25.98
2018-08-16T09:19:14.140Z,25.77
2018-08-16T09:24:18.921Z,25.76
2018-08-16T09:30:25.832Z,26.31
2018-08-16T09:35:30.779Z,26.66
2018-08-16T09:40:35.500Z,27.28
2018-08-16T09:46:58.173Z,27.62
2018-08-16T09:52:03.006Z,27.24
2018-08-16T09:57:09.181Z,27.27
2018-08-16T10:02:17.282Z,27.29
2018-08-16T10:07:21.969Z,27.52
2018-08-16T10:12:26.680Z,27.98
2018-08-16T10:17:31.515Z,28.42
2018-08-16T10:22:36.467Z,28.70
2018-08-16T10:27:41.198Z,28.65
2018-08-16T10:32:45.938Z,28.93
2018-08-16T10:37:50.618Z,28.26
2018-08-16T10:42:55.333Z,29.05
2018-08-16T10:48:00.083Z,28.36
2018-08-16T10:53:04.800Z,28.37
2018-08-16T10:58:09.580Z,28.46
2018-08-16T11:03:14.367Z,28.96
2018-08-16T11:08:19.033Z,28.68
2018-08-16T11:13:23.732Z,29.02
2018-08-16T11:18:28.634Z,28.92
2018-08-16T11:23:33.393Z,30.18
2018-08-16T11:28:38.114Z,29.58
2018-08-16T11:33:42.808Z,29.29
2018-08-16T11:38:47.437Z,29.77
2018-08-16T11:43:52.096Z,29.98
2018-08-16T11:48:57.156Z,29.55
2018-08-16T11:54:01.788Z,30.24
2018-08-16T11:59:06.576Z,29.65
2018-08-16T12:04:11.230Z,30.18
2018-08-16T12:09:15.910Z,30.78
2018-08-16T12:14:20.588Z,31.13
2018-08-16T12:19:25.327Z,30.48
2018-08-16T12:24:29.974Z,29.96
2018-08-16T12:29:34.912Z,30.50
2018-08-16T12:34:39.788Z,30.04
2018-08-16T12:39:44.648Z,30.41
2018-08-16T12:44:49.626Z,30.87
2018-08-16T12:49:54.504Z,31.13
2018-08-16T12:54:59.342Z,31.59
2018-08-16T13:00:04.645Z,31.00
2018-08-16T13:05:09.575Z,31.20
2018-08-16T13:10:14.744Z,31.49
2018-08-16T13:15:19.724Z,31.82
2018-08-16T13:20:24.706Z,31.38
2018-08-16T13:25:29.938Z,30.83
2018-08-16T13:30:34.781Z,31.14
2018-08-16T13:35:39.763Z,31.71
2018-08-16T13:40:44.664Z,31.28
2018-08-16T13:45:49.488Z,30.74
2018-08-16T13:50:54.258Z,30.93
2018-08-16T13:55:59.321Z,31.47
2018-08-16T14:01:04.245Z,31.16
2018-08-16T14:06:09.481Z,31.35
2018-08-16T14:11:14.455Z,31.39
2018-08-16T14:16:19.241Z,31.65
2018-08-16T14:21:24.142Z,31.88
2018-08-16T14:26:28.881Z,31.69
2018-08-16T14:31:33.650Z,32.48
2018-08-16T14:36:38.517Z,31.93
2018-08-16T14:41:43.304Z,31.78
2018-08-16T14:46:48.117Z,31.65
2018-08-16T14:51:53.021Z,32.13
2018-08-16T14:56:57.950Z,31.95
2018-08-16T15:02:02.827Z,31.99
2018-08-16T15:07:07.766Z,31.62
2018-08-16T15:12:12.641Z,31.92
2018-08-16T15:17:17.438Z,31.51
2018-08-16T15:22:22.248Z,31.72
2018-08-16T15:27:27.046Z,32.26
2018-08-16T15:32:31.924Z,32.36
2018-08-16T15:37:36.977Z,32.52
2018-08-16T15:42:41.819Z,31.95
2018-08-16T15:47:46.683Z,31.65
2018-08-16T15:52:51.519Z,31.91
2018-08-16T15:57:56.282Z,31.81
2018-08-16T16:03:01.302Z,31.57
2018-08-16T16:08:06.217Z,31.40
2018-08-16T16:13:11.191Z,31.62
2018-08-16T16:18:16.023Z,31.51
2018-08-16T16:23:20.891Z,31.47
2018-08-16T16:28:25.743Z,31.34
2018-08-16T16:33:30.734Z,31.31
2018-08-16T16:38:35.593Z,31.13
2018-08-16T16:43:40.523Z,30.91
2018-08-16T16:48:45.409Z,30.79
2018-08-16T16:53:50.219Z,30.52
2018-08-16T16:58:55.104Z,30.41
2018-08-16T17:03:59.907Z,29.52
2018-08-16T17:09:06.148Z,28.93
2018-08-16T17:14:11.205Z,28.52
2018-08-16T17:19:16.007Z,28.34
2018-08-16T17:24:20.859Z,27.97
2018-08-16T17:29:25.667Z,27.71
2018-08-16T17:34:30.473Z,27.51
2018-08-16T17:39:35.515Z,27.28
2018-08-16T17:44:40.442Z,27.31
2018-08-16T17:49:45.212Z,27.12
2018-08-16T17:54:50.059Z,26.86
2018-08-16T17:59:55.009Z,26.56
2018-08-16T18:04:59.980Z,26.21
2018-08-16T18:10:06.290Z,25.95
2018-08-16T18:15:12.686Z,25.74
2018-08-16T18:20:17.606Z,25.35
2018-08-16T18:25:22.634Z,25.06
2018-08-16T18:30:28.277Z,24.84
2018-08-16T18:35:33.230Z,24.56
2018-08-16T18:40:38.156Z,24.17
2018-08-16T18:45:43.012Z,24.01
2018-08-16T18:50:47.839Z,23.78
2018-08-16T18:55:52.698Z,23.31
2018-08-16T19:00:57.585Z,23.22
2018-08-16T19:06:02.420Z,22.91
2018-08-16T19:11:07.353Z,22.61
2018-08-16T19:16:12.208Z,22.42
2018-08-16T19:21:17.134Z,22.34
2018-08-16T19:26:22.309Z,22.19
2018-08-16T19:31:27.230Z,22.13
2018-08-16T19:36:32.184Z,21.98
2018-08-16T19:41:36.988Z,21.69
2018-08-16T19:46:41.932Z,21.50
2018-08-16T19:51:46.801Z,21.45
2018-08-16T19:56:51.599Z,21.39
2018-08-16T20:01:56.513Z,21.44
2018-08-16T20:07:01.472Z,21.05
2018-08-16T20:12:06.436Z,21.02
2018-08-16T20:17:11.370Z,20.84
2018-08-16T20:22:19.287Z,20.71
2018-08-16T20:27:24.141Z,20.56
2018-08-16T20:32:29.107Z,20.48
2018-08-16T20:37:34.220Z,20.29
2018-08-16T20:42:39.154Z,20.03
2018-08-16T20:47:43.999Z,20.10
2018-08-16T20:52:49.089Z,20.03
2018-08-16T20:57:54.057Z,19.92
2018-08-16T21:02:59.024Z,20.00
2018-08-16T21:08:03.970Z,19.88
2018-08-16T21:13:08.847Z,19.76
2018-08-16T21:18:13.767Z,19.64
2018-08-16T21:23:18.725Z,19.42
2018-08-16T21:28:23.574Z,19.26
2018-08-16T21:33:28.356Z,19.27
2018-08-16T21:38:33.243Z,19.03
2018-08-16T21:43:38.184Z,18.98
2018-08-16T21:48:43.115Z,19.02
2018-08-16T21:53:47.869Z,18.89
2018-08-16T21:58:52.803Z,18.90
2018-08-16T22:03:57.731Z,18.78
2018-08-16T22:09:02.760Z,18.60
2018-08-16T22:14:07.551Z,18.50
2018-08-16T22:19:12.394Z,18.48
2018-08-16T22:24:17.222Z,18.44
2018-08-16T22:29:22.082Z,18.34
2018-08-16T22:34:27.009Z,18.26
2018-08-16T22:39:31.907Z,18.22
2018-08-16T22:44:36.934Z,18.13
2018-08-16T22:49:41.767Z,18.11
2018-08-16T22:54:46.709Z,18.00
2018-08-16T22:59:51.601Z,17.86
2018-08-16T23:04:56.449Z,17.89
2018-08-16T23:10:01.280Z,17.93
2018-08-16T23:15:07.322Z,17.77
2018-08-16T23:20:12.242Z,17.67
2018-08-16T23:25:17.203Z,17.54
2018-08-16T23:30:22.134Z,17.48
2018-08-16T23:35:26.963Z,17.46
2018-08-16T23:40:31.936Z,17.35
2018-08-16T23:45:36.790Z,17.29
2018-08-16T23:50:41.604Z,17.25
2018-08-16T23:55:46.452Z,17.14
